UNR Ag. Experiment Farm, Sparks, Nevada Weather observations

Data are for 10 minute period ending at time listed.
 Day   Time   Solar   Ave.   Ave.  Ave.  Vector  Max.   Baro.   Total    
  of    of     Rad.   Air    Rel.  Wind   Wind   Wind  Press.  Precip.   
Year   Day            Temp.  Hum.  Speed  Dir.   Gust                    
2026   (PST)  Kw/m2    F      %     mph   deg.    mph    mb.     in.     
-------------------------------------------------------------------------
 127    2:50   0.00   47.4    79    2.1   110     4.2   869.0    0.00 
 127    3:00   0.00   47.5    83    1.5    12     4.0   869.1    0.00 
 127    3:10   0.00   47.5    79    0.9   276     3.0   869.0    0.00 
 127    3:20   0.00   47.0    80    0.3   289     1.3   869.0    0.00 
 127    3:30   0.00   47.0    82    0.3   306     1.5   869.0    0.00 
 127    3:40   0.00   46.8    81    0.4    63     2.8   869.0    0.00 
 127    3:50   0.00   45.5    86    1.8   124     3.2   869.0    0.00 
 127    4:00   0.00   43.3    89    1.1    51     2.4   869.1    0.00 
 127    4:10   0.00   44.1    92    0.2   183     0.7   869.1    0.00 
 127    4:20   0.00   45.6    88    1.2   163     2.4   869.1    0.00 
 127    4:30   0.00   44.9    88    1.2   153     2.2   869.1    0.00 
 127    4:40   0.00   44.5    88    2.1   175     3.1   869.1    0.00 
 127    4:50   0.00   42.4    90    2.8   196     4.2   869.1    0.00 
 127    5:00   0.00   43.0    93    1.8   168     3.8   869.1    0.00 
 127    5:10   0.01   43.3    92    0.1   182     0.7   869.1    0.00 
 127    5:20   0.02   43.5    94    0.9   258     2.6   869.1    0.00 
 127    5:30   0.08   44.9    93    0.4     1     1.5   869.1    0.00 
 127    5:40   0.11   46.0    90    0.3   320     2.4   869.1    0.00 
 127    5:50   0.13   47.0    88    2.1   316     2.6   869.3    0.00 
 127    6:00   0.17   48.5    86    1.5   257     2.3   869.4    0.00 
 127    6:10   0.20   51.1    82    1.5   216     2.5   869.5    0.00 
 127    6:20   0.24   53.2    74    1.9   248     3.0   869.5    0.00 
 127    6:30   0.27   54.7    68    1.4   250     2.6   869.5    0.00 
 127    6:40   0.31   56.2    63    0.2   244     1.0   869.5    0.00 
 127    6:50   0.34   58.0    59    0.4   254     2.0   869.5    0.00 
 127    7:00   0.38   59.2    58    1.5    39     3.1   869.6    0.00 
 127    7:10   0.42   59.4    59    3.3    64     4.9   869.5    0.00 
 127    7:20   0.45   59.8    58    2.3    32     4.3   869.5    0.00 
 127    7:30   0.49   60.3    56    2.8    19     4.5   869.5    0.00 
 127    7:40   0.53   61.3    54    2.4    20     4.1   869.6    0.00 
 127    7:50   0.56   62.4    53    2.1    15     4.1   869.6    0.00 
 127    8:00   0.60   63.2    50    2.0    16     3.8   869.6    0.00 
 127    8:10   0.64   65.0    44    1.2   114     2.9   869.5    0.00 
 127    8:20   0.65   66.0    45    1.2   114     3.2   869.4    0.00 
 127    8:30   0.68   67.5    44    1.2    71     3.1   869.4    0.00 
 127    8:40   0.74   68.8    42    1.9    60     4.1   869.3    0.00 
 127    8:50   0.77   69.2    42    2.5    48     5.7   869.3    0.00 
 127    9:00   0.80   69.0    40    1.1   355     3.3   869.3    0.00 
 127    9:10   0.83   69.4    40    1.4   292     4.0   869.2    0.00 
 127    9:20   0.86   70.3    39    1.8   266     4.8   869.2    0.00 
 127    9:30   0.89   70.8    38    2.2   177     3.8   869.1    0.00 
 127    9:40   0.92   71.5    34    1.8   213     4.6   869.0    0.00 
 127    9:50   0.94   72.5    30    1.4   175     4.0   868.9    0.00 
 127   10:00   0.97   74.0    25    2.6   202     7.1   868.8    0.00 
 127   10:10   0.99   74.4    23    8.1   294    15.7   868.7    0.00 
 127   10:20   1.01   74.1    22    9.6   286    18.0   868.6    0.00 
 127   10:30   1.03   74.6    22   11.8   276    17.0   868.5    0.00 
 127   10:40   1.04   75.0    22   11.3   282    17.7   868.5    0.00 
 127   10:50   1.06   75.0    24   11.5   298    18.0   868.4    0.00 
 127   11:00   1.07   75.2    23   11.5   294    17.4   868.3    0.00 
 127   11:10   1.08   75.3    24    9.0   304    17.9   868.1    0.00 
 127   11:20   1.08   75.8    24   11.2   300    15.6   868.0    0.00 
 127   11:30   1.09   75.9    24   12.1   305    18.5   867.9    0.00 
 127   11:40   1.10   76.5    23   13.1   294    18.7   867.7    0.00 
 127   11:50   1.10   77.0    21   12.6   290    17.7   867.6    0.00 
 127   12:00   1.10   77.2    20   13.0   300    18.9   867.5    0.00 
 127   12:10   1.10   77.2    21   11.9   298    17.8   867.4    0.00 
 127   12:20   1.10   77.9    20   12.6   281    19.4   867.4    0.00 
 127   12:30   1.10   78.1    19   11.9   277    17.1   867.4    0.00 
 127   12:40   1.09   78.2    19   13.2   289    18.6   867.3    0.00 
 127   12:50   1.08   78.2    19   12.7   297    19.6   867.2    0.00 
 127   13:00   1.08   78.1    18   11.3   276    18.2   867.2    0.00 
 127   13:10   1.06   78.7    18    9.7   252    18.1   867.2    0.00 
 127   13:20   1.05   78.7    19    9.1   250    17.6   867.1    0.00 
 127   13:30   1.03   78.6    19   11.0   260    16.0   867.1    0.00 
 127   13:40   1.01   78.4    20    9.6   270    20.0   867.0    0.00 
 127   13:50   1.00   78.9    19    9.4   254    15.7   866.9    0.00 
 127   14:00   0.97   79.1    19    8.9   262    16.8   866.8    0.00 
 127   14:10   0.95   78.8    19   13.3   274    19.6   866.7    0.00 
 127   14:20   0.93   79.0    19   12.0   258    18.8   866.7    0.00 
 127   14:30   0.90   78.9    20   11.3   274    15.4   866.6    0.00 
 127   14:40   0.88   78.9    20   10.7   251    18.1   866.6    0.00 
 127   14:50   0.85   78.3    20   13.8   246    19.7   866.4    0.00 
 127   15:00   0.82   78.7    19   12.2   258    19.0   866.5    0.00 
 127   15:10   0.79   78.4    19   13.3   254    19.9   866.4    0.00 
 127   15:20   0.76   78.3    19   13.4   249    19.4   866.4    0.00 
 127   15:30   0.73   78.7    20   11.9   251    21.1   866.4    0.00 
 127   15:40   0.70   78.2    19   12.2   252    17.5   866.4    0.00 
 127   15:50   0.66   78.0    19   10.5   253    17.4   866.4    0.00 
 127   16:00   0.63   78.2    19   11.4   262    17.0   866.3    0.00 
 127   16:10   0.59   77.9    19   11.2   252    18.8   866.4    0.00 
 127   16:20   0.56   77.5    19   11.0   259    20.0   866.4    0.00 
 127   16:30   0.52   77.4    19   10.9   257    17.1   866.4    0.00 
 127   16:40   0.48   77.0    20   11.5   259    17.4   866.4    0.00 
 127   16:50   0.45   76.7    20   11.6   266    17.2   866.4    0.00 
 127   17:00   0.41   76.2    21   10.4   268    15.7   866.5    0.00 
 127   17:10   0.38   75.8    22   12.0   257    19.8   866.5    0.00 
 127   17:20   0.34   75.3    23   12.0   266    18.7   866.5    0.00 
 127   17:30   0.30   74.9    24   12.1   268    17.0   866.6    0.00 
 127   17:40   0.25   74.1    26   11.1   257    17.0   866.6    0.00 
 127   17:50   0.22   73.8    26   13.4   258    18.3   866.6    0.00 
 127   18:00   0.20   73.4    27   12.1   254    18.6   866.7    0.00 
 127   18:10   0.16   72.6    29   12.2   247    18.2   866.8    0.00 
 127   18:20   0.13   72.1    29    9.9   255    14.9   867.0    0.00 
 127   18:30   0.10   71.6    30    9.9   260    15.4   867.0    0.00 
 127   18:40   0.08   70.8    30    9.8   259    14.2   867.1    0.00 
 127   18:50   0.04   70.0    32    9.5   252    14.2   867.2    0.00 
 127   19:00   0.01   69.2    33    9.7   250    13.8   867.3    0.00 
 127   19:10   0.00   68.5    34    9.4   257    14.4   867.4    0.00 
 127   19:20   0.00   68.3    34   10.1   256    16.6   867.5    0.00 
 127   19:30   0.00   67.3    36    6.6   262    13.2   867.5    0.00 
 127   19:40   0.00   66.6    36    7.8   267    13.8   867.7    0.00 
 127   19:50   0.00   66.1    38    5.3   266    10.1   867.9    0.00 
 127   20:00   0.00   65.6    38    4.7   257     8.4   868.0    0.00 
 127   20:10   0.00   64.9    38    2.1   247     4.3   868.2    0.00 
 127   20:20   0.00   64.3    37    2.2   218     5.2   868.3    0.00 
 127   20:30   0.00   63.2    36    1.8   215     5.3   868.4    0.00 
 127   20:40   0.00   63.3    32    3.1   293     5.0   868.5    0.00 
 127   20:50   0.00   61.0    37    1.6   351     3.5   868.6    0.00 
 127   21:00   0.00   58.6    44    1.5   356     5.5   868.6    0.00 
 127   21:10   0.00   58.4    44    3.0   145     5.1   868.5    0.00 
 127   21:20   0.00   57.5    48    0.9   240     2.4   868.5    0.00 
 127   21:30   0.00   56.5    50    3.0   237     5.0   868.5    0.00 
 127   21:40   0.00   57.5    46    2.2   216     3.9   868.6    0.00 
 127   21:50   0.00   58.1    44    2.0   234     3.3   868.6    0.00 
 127   22:00   0.00   54.4    52    3.9   258     6.9   868.6    0.00 
 127   22:10   0.00   59.4    40    4.1   287     7.2   868.7    0.00 
 127   22:20   0.00   62.5    35    0.8    79     1.8   868.7    0.00 
 127   22:30   0.00   62.5    32    2.0    66     3.9   868.7    0.00 
 127   22:40   0.00   57.2    48    3.1    84     5.8   868.7    0.00 
 127   22:50   0.00   54.0    55    1.4   104     2.9   868.7    0.00 
 127   23:00   0.00   51.8    56    2.0   155     2.9   868.7    0.00 
 127   23:10   0.00   51.3    57    2.3   156     3.6   868.6    0.00 
 127   23:20   0.00   49.2    64    1.3   131     2.9   868.6    0.00 
 127   23:30   0.00   47.7    68    1.1    14     2.4   868.6    0.00 
 127   23:40   0.00   48.1    63    1.7   240     3.5   868.7    0.00 
 127   23:50   0.00   50.2    57    1.6   318     2.2   868.7    0.00 
 128    0:00   0.00   49.6    58    1.5   153     4.2   868.7    0.00 
 128    0:10   0.00   50.5    56    2.5   191     4.4   868.7    0.00 
 128    0:20   0.00   47.4    65    1.5   185     2.8   868.6    0.00 
 128    0:30   0.00   45.4    70    0.8    18     2.5   868.6    0.00 
 128    0:40   0.00   44.6    71    0.7    43     2.2   868.5    0.00 
 128    0:50   0.00   47.4    63    2.1   310     4.3   868.4    0.00 
 128    1:00   0.00   47.5    62    1.5    81     3.9   868.4    0.00 
 128    1:10   0.00   47.3    62    1.7    87     4.1   868.4    0.00 
 128    1:20   0.00   44.8    71    1.4   124     2.9   868.5    0.00 
 128    1:30   0.00   45.1    72    0.8   268     2.3   868.5    0.00 
 128    1:40   0.00   46.7    68    2.1   186     3.2   868.6    0.00 
 128    1:50   0.00   48.5    60    1.1   194     2.7   868.6    0.00 
 128    2:00   0.00   45.5    69    2.1   211     3.1   868.7    0.00 
 128    2:10   0.00   42.7    77    2.2   164     3.3   868.7    0.00 
 128    2:20   0.00   43.9    78    3.3   160     4.4   868.7    0.00 
 128    2:30   0.00   42.5    78    1.2   242     3.6   868.7    0.00 
 128    2:40   0.00   41.3    84    0.6    85     1.8   868.8    0.00 

Return to Sparks, Nevada, UNR Ag Experiment Farm graphs page.


Western Regional Climate Center,wrcc@dri.edu